Dades meteomassalio
Diari Summary for Gener 5, 2018 Units:  English    Metric   Both
« Previous Day
Next Day »
Diari Semanal Mensual Anual Personalitzat
  Maxima: Minima: Mijana:
Temperatura: TemperatureC °F 1.7 °F 8.8 °F
Rosada: DewpointC °F -4.2 °F 1.6 °F
Humitat: Humidity % 43 % 62 %
Velocitat del vent: WindSpeedKMH mph 0.0 mph 8.9 mph
Racha vent: WindSpeedGustKMH mph - -
Vent:- - WNW
Pressio: PressurehPa in 1008.0 in -
Pluja: 0.0 in    
Historical Graphs
 
 
Tabular Data for Gener 5, 2018
Time Temperature Dew Point Pressure Wind Wind Speed Wind Gust Humidity Rainfall Rate (Hourly) solar Conditions
TemperatureC °F DewpointC °F PressurehPa in Calm     Humidity % HourlyPrecipMM in SolarRadiationWatts/m^2 W/m2 Conditions
00:02 12.2 °F 5.2 °F 1020.5 in WNW 14.8 mph 14.8 mph 62 % 0.0 in 0.0 W/m2 CLR
00:07 12.2 °F 5.2 °F 1020.5 in WSW 18.5 mph 18.5 mph 62 % 0.0 in 0.0 W/m2 CLR
00:12 12.2 °F 5.2 °F 1020.5 in West 20.4 mph 20.4 mph 62 % 0.0 in 0.0 W/m2 CLR
00:18 12.2 °F 5.2 °F 1020.5 in West 13.0 mph 13.0 mph 62 % 0.0 in 0.0 W/m2 CLR
00:24 12.2 °F 5.4 °F 1020.5 in West 16.7 mph 16.7 mph 63 % 0.0 in 0.0 W/m2 CLR
00:25 12.2 °F 5.4 °F 1020.5 in West 18.5 mph   63 % 0.0 in 0.0 W/m2 CLR
00:28 11.7 °F 4.8 °F 1020.5 in West 6.4 mph 6.4 mph 63 % 0.0 in 0.0 W/m2 CLR
00:33 11.7 °F 4.8 °F 1020.2 in WNW 14.8 mph 14.8 mph 63 % 0.0 in 0.0 W/m2 CLR
00:35 11.7 °F 5.1 °F 1020.5 in WNW 16.7 mph 16.7 mph 64 % 0.0 in 0.0 W/m2 CLR
00:40 11.1 °F 4.3 °F 1020.2 in WNW 20.4 mph 20.4 mph 63 % 0.0 in 0.0 W/m2 CLR
00:41 11.1 °F 4.3 °F 1020.2 in NW 18.5 mph 18.5 mph 63 % 0.0 in 0.0 W/m2 CLR
00:46 11.1 °F 4.3 °F 1020.2 in WNW 18.5 mph 18.5 mph 63 % 0.0 in 0.0 W/m2 CLR
00:47 11.1 °F 4.3 °F 1020.2 in WNW 18.5 mph 18.5 mph 63 % 0.0 in 0.0 W/m2 CLR
00:52 11.7 °F 4.6 °F 1020.2 in WNW 18.5 mph 18.5 mph 62 % 0.0 in 0.0 W/m2 CLR
00:54 11.7 °F 4.6 °F 1019.9 in WNW 9.3 mph 9.3 mph 62 % 0.0 in 0.0 W/m2 CLR
00:59 12.2 °F 5.4 °F 1019.9 in WNW 11.1 mph 11.1 mph 63 % 0.0 in 0.0 W/m2 CLR
01:04 11.7 °F 4.8 °F 1019.9 in WNW 13.0 mph 13.0 mph 63 % 0.0 in 0.0 W/m2 CLR
01:07 11.7 °F 4.8 °F 1019.9 in NW 14.8 mph 14.8 mph 63 % 0.0 in 0.0 W/m2 CLR
01:12 11.1 °F 4.3 °F 1019.9 in WNW 16.7 mph 16.7 mph 63 % 0.0 in 0.0 W/m2 CLR
01:15 11.1 °F 4.3 °F 1019.9 in West 12.9 mph 12.9 mph 63 % 0.0 in 0.0 W/m2 CLR
01:20 10.6 °F 3.8 °F 1019.5 in WNW 16.7 mph 16.7 mph 63 % 0.0 in 0.0 W/m2 CLR
01:25 10.0 °F 3.3 °F 1019.5 in WNW 14.8 mph 14.8 mph 63 % 0.0 in 0.0 W/m2 CLR
01:26 9.4 °F 2.5 °F 1019.5 in WNW 8.0 mph 8.0 mph 62 % 0.0 in 0.0 W/m2 CLR
01:29 9.4 °F 2.7 °F 1019.5 in West 7.4 mph 7.4 mph 63 % 0.0 in 0.0 W/m2 CLR
01:32 8.9 °F 2.2 °F 1019.2 in West 9.3 mph 9.3 mph 63 % 0.0 in 0.0 W/m2 CLR
01:38 8.3 °F 1.7 °F 1019.2 in West 16.7 mph 16.7 mph 63 % 0.0 in 0.0 W/m2 CLR
01:43 8.3 °F 1.7 °F 1019.2 in West 14.8 mph 14.8 mph 63 % 0.0 in 0.0 W/m2 CLR
01:44 8.3 °F 1.7 °F 1019.2 in West 19.3 mph 19.3 mph 63 % 0.0 in 0.0 W/m2 CLR
01:47 7.8 °F 1.2 °F 1019.2 in West 11.1 mph 11.1 mph 63 % 0.0 in 0.0 W/m2 CLR
01:52 7.8 °F 1.2 °F 1019.2 in WNW 16.7 mph 16.7 mph 63 % 0.0 in 0.0 W/m2 CLR
01:57 7.8 °F 1.2 °F 1018.8 in WNW 11.3 mph 11.3 mph 63 % 0.0 in 0.0 W/m2 CLR
02:00 7.8 °F 1.2 °F 1018.8 in WNW 13.0 mph 13.0 mph 63 % 0.0 in 0.0 W/m2 CLR
02:05 7.2 °F 0.7 °F 1018.8 in West 11.3 mph 11.3 mph 63 % 0.0 in 0.0 W/m2 CLR
02:10 7.2 °F 0.7 °F 1018.8 in WNW 16.7 mph 16.7 mph 63 % 0.0 in 0.0 W/m2 CLR
02:11 7.2 °F 0.4 °F 1018.8 in WNW 14.8 mph 14.8 mph 62 % 0.0 in 0.0 W/m2 CLR
02:16 7.2 °F 0.4 °F 1018.8 in WNW 14.8 mph 14.8 mph 62 % 0.0 in 0.0 W/m2 CLR
02:18 6.7 °F -0.1 °F 1018.8 in West 13.0 mph 13.0 mph 62 % 0.0 in 0.0 W/m2 CLR
02:23 6.7 °F 0.1 °F 1018.5 in West 20.4 mph 20.4 mph 63 % 0.0 in 0.0 W/m2 CLR
02:28 8.3 °F 1.7 °F 1018.5 in WNW 9.3 mph 9.3 mph 63 % 0.0 in 0.0 W/m2 CLR
02:29 8.3 °F 1.7 °F 1018.5 in WNW 9.3 mph 9.3 mph 63 % 0.0 in 0.0 W/m2 CLR
02:34 8.3 °F 1.9 °F 1018.5 in West 16.1 mph 16.1 mph 64 % 0.0 in 0.0 W/m2 CLR
02:35 8.3 °F 1.9 °F 1018.5 in WNW 20.4 mph 20.4 mph 64 % 0.0 in 0.0 W/m2 CLR
02:36 8.3 °F 1.9 °F 1018.5 in WNW 20.4 mph 20.4 mph 64 % 0.0 in 0.0 W/m2 CLR
02:40 9.4 °F 2.9 °F 1018.5 in West 13.0 mph 13.0 mph 64 % 0.0 in 0.0 W/m2 CLR
02:42 9.4 °F 2.9 °F 1018.5 in West 14.5 mph 14.5 mph 64 % 0.0 in 0.0 W/m2 CLR
02:45 9.4 °F 2.9 °F 1018.5 in West 6.4 mph 6.4 mph 64 % 0.0 in 0.0 W/m2 CLR
02:51 9.4 °F 3.2 °F 1018.2 in West 9.3 mph 9.3 mph 65 % 0.0 in 0.0 W/m2 CLR
02:54 9.4 °F 3.2 °F 1018.2 in West 8.0 mph 8.0 mph 65 % 0.0 in 0.0 W/m2 CLR
02:59 10.0 °F 3.7 °F 1018.2 in West 11.3 mph 11.3 mph 65 % 0.0 in 0.0 W/m2 CLR
03:04 10.6 °F 4.2 °F 1018.2 in West 5.6 mph 5.6 mph 65 % 0.0 in 0.0 W/m2 CLR
03:09 11.1 °F 4.8 °F 1018.2 in West 7.4 mph 7.4 mph 65 % 0.0 in 0.0 W/m2 CLR
03:13 10.6 °F 4.2 °F 1018.2 in West 5.6 mph 5.6 mph 65 % 0.0 in 0.0 W/m2 CLR
03:15 10.0 °F 3.7 °F 1018.2 in West 11.3 mph 11.3 mph 65 % 0.0 in 0.0 W/m2 CLR
03:19 9.4 °F 3.2 °F 1018.2 in West 5.6 mph 5.6 mph 65 % 0.0 in 0.0 W/m2 CLR
03:24 8.3 °F 2.1 °F 1017.8 in WNW 7.4 mph 7.4 mph 65 % 0.0 in 0.0 W/m2 CLR
03:30 7.8 °F 1.6 °F 1017.8 in West 8.0 mph 8.0 mph 65 % 0.0 in 0.0 W/m2 CLR
03:32 7.8 °F 1.6 °F 1017.8 in WNW 11.1 mph 11.1 mph 65 % 0.0 in 0.0 W/m2 CLR
03:36 7.2 °F 1.1 °F 1017.8 in WNW 9.7 mph 9.7 mph 65 % 0.0 in 0.0 W/m2 CLR
03:38 7.2 °F 0.8 °F 1017.8 in West 9.3 mph 9.3 mph 64 % 0.0 in 0.0 W/m2 CLR
03:43 6.7 °F 0.3 °F 1017.5 in WNW 11.1 mph 11.1 mph 64 % 0.0 in 0.0 W/m2 CLR
03:48 6.7 °F 0.3 °F 1017.5 in West 18.5 mph 18.5 mph 64 % 0.0 in 0.0 W/m2 CLR
03:49 6.7 °F 0.3 °F 1017.5 in WNW 18.5 mph 18.5 mph 64 % 0.0 in 0.0 W/m2 CLR
03:54 6.7 °F 0.3 °F 1017.5 in West 13.0 mph 13.0 mph 64 % 0.0 in 0.0 W/m2 CLR
03:59 6.7 °F 0.6 °F 1017.2 in WNW 13.0 mph 13.0 mph 65 % 0.0 in 0.0 W/m2 CLR
04:02 6.7 °F 0.6 °F 1017.2 in WNW 6.4 mph 6.4 mph 65 % 0.0 in 0.0 W/m2 CLR
04:03 6.7 °F 0.6 °F 1017.2 in WNW 5.6 mph 8.0 mph 65 % 0.0 in 0.0 W/m2 CLR
04:08 6.7 °F 0.6 °F 1017.2 in WNW 14.8 mph 14.8 mph 65 % 0.0 in 0.0 W/m2 CLR
04:13 6.7 °F 0.6 °F 1017.2 in WNW 9.3 mph 9.3 mph 65 % 0.0 in 0.0 W/m2 CLR
04:18 6.7 °F 0.6 °F 1016.8 in West 1.9 mph 1.9 mph 65 % 0.0 in 0.0 W/m2 CLR
04:23 6.7 °F 0.8 °F 1016.8 in Calm     66 % 0.0 in 0.0 W/m2 CLR
04:24 6.1 °F 0.2 °F 1016.8 in Calm     66 % 0.0 in 0.0 W/m2 CLR
04:29 6.1 °F 0.2 °F 1016.8 in West 3.7 mph 3.7 mph 66 % 0.0 in 0.0 W/m2 CLR
04:31 6.1 °F 0.2 °F 1016.8 in Calm     66 % 0.0 in 0.0 W/m2 CLR
04:35 6.1 °F 0.2 °F 1016.8 in West 1.6 mph 1.6 mph 66 % 0.0 in 0.0 W/m2 CLR
04:36 6.1 °F 0.2 °F 1016.8 in West 3.7 mph 3.7 mph 66 % 0.0 in 0.0 W/m2 CLR
04:41 5.6 °F -0.3 °F 1016.8 in WNW 6.4 mph 6.4 mph 66 % 0.0 in 0.0 W/m2 CLR
04:43 5.6 °F -0.3 °F 1016.5 in WNW 7.4 mph 7.4 mph 66 % 0.0 in 0.0 W/m2 CLR
04:48 5.6 °F -0.3 °F 1016.5 in WNW 7.4 mph 7.4 mph 66 % 0.0 in 0.0 W/m2 CLR
04:49 5.6 °F -0.3 °F 1016.5 in WNW 9.3 mph 9.3 mph 66 % 0.0 in 0.0 W/m2 CLR
04:54 5.0 °F -1.1 °F 1016.5 in WNW 9.7 mph 9.7 mph 65 % 0.0 in 0.0 W/m2 CLR
05:00 5.0 °F -1.1 °F 1016.5 in WNW 6.4 mph 6.4 mph 65 % 0.0 in 0.0 W/m2 CLR
05:04 5.0 °F -1.1 °F 1016.5 in WNW 18.5 mph 18.5 mph 65 % 0.0 in 0.0 W/m2 CLR
05:09 4.4 °F -1.6 °F 1016.1 in WNW 11.1 mph 11.1 mph 65 % 0.0 in 0.0 W/m2 CLR
05:10 4.4 °F -1.6 °F 1016.1 in NW 11.1 mph 11.1 mph 65 % 0.0 in 0.0 W/m2 CLR
05:15 4.4 °F -1.6 °F 1016.5 in WNW 9.7 mph 9.7 mph 65 % 0.0 in 0.0 W/m2 CLR
05:16 4.4 °F -1.6 °F 1016.1 in WNW 9.3 mph 9.3 mph 65 % 0.0 in 0.0 W/m2 CLR
05:20 4.4 °F -1.6 °F 1016.1 in WNW 14.8 mph 14.8 mph 65 % 0.0 in 0.0 W/m2 CLR
05:25 4.4 °F -1.6 °F 1016.1 in WNW 14.8 mph 14.8 mph 65 % 0.0 in 0.0 W/m2 CLR
05:30 4.4 °F -1.6 °F 1016.1 in West 9.3 mph 9.3 mph 65 % 0.0 in 0.0 W/m2 CLR
05:35 4.4 °F -1.3 °F 1015.8 in WNW 14.8 mph 14.8 mph 66 % 0.0 in 0.0 W/m2 CLR
05:36 4.4 °F -1.3 °F 1016.1 in West 5.6 mph 5.6 mph 66 % 0.0 in 0.0 W/m2 CLR
05:41 4.4 °F -1.3 °F 1015.8 in WNW 11.1 mph 11.1 mph 66 % 0.0 in 0.0 W/m2 CLR
05:42 4.4 °F -1.3 °F 1016.1 in West 11.1 mph 11.1 mph 66 % 0.0 in 0.0 W/m2 CLR
05:43 4.4 °F -1.3 °F 1016.1 in WNW 5.6 mph 5.6 mph 66 % 0.0 in 0.0 W/m2 CLR
05:48 3.9 °F -1.9 °F 1015.8 in West 3.7 mph   66 % 0.0 in 0.0 W/m2 CLR
05:50 3.9 °F -1.9 °F 1015.8 in WNW 1.9 mph   66 % 0.0 in 0.0 W/m2 CLR
05:54 3.9 °F -1.9 °F 1015.8 in Calm     66 % 0.0 in 0.0 W/m2 CLR
05:59 3.9 °F -1.7 °F 1015.8 in Calm     67 % 0.0 in 0.0 W/m2 CLR
06:00 3.9 °F -1.7 °F 1015.8 in Calm     67 % 0.0 in 0.0 W/m2 CLR
06:05 3.3 °F -2.2 °F 1015.8 in Calm     67 % 0.0 in 0.0 W/m2 CLR
06:10 3.3 °F -1.8 °F 1015.8 in Calm     69 % 0.0 in 0.0 W/m2 CLR
06:15 3.3 °F -1.8 °F 1015.8 in Calm     69 % 0.0 in 0.0 W/m2 CLR
06:19 2.8 °F -2.2 °F 1015.8 in Calm     70 % 0.0 in 0.0 W/m2 CLR
06:24 2.8 °F -1.9 °F 1015.8 in Calm     71 % 0.0 in 0.0 W/m2 CLR
06:28 2.8 °F -1.8 °F 1015.8 in Calm     72 % 0.0 in 0.0 W/m2 CLR
06:33 2.8 °F -1.4 °F 1015.8 in Calm     74 % 0.0 in 0.0 W/m2 CLR
06:37 2.8 °F -1.4 °F 1015.8 in Calm     74 % 0.0 in 0.0 W/m2 CLR
06:42 2.8 °F -1.2 °F 1015.8 in West 5.6 mph 5.6 mph 75 % 0.0 in 0.0 W/m2 CLR
06:45 2.2 °F -1.8 °F 1015.5 in West 5.6 mph 5.8 mph 75 % 0.0 in 0.0 W/m2 CLR
06:50 2.2 °F -1.4 °F 1015.5 in WNW 6.4 mph 6.4 mph 77 % 0.0 in 0.0 W/m2 CLR
06:55 2.2 °F -1.8 °F 1015.8 in West 5.6 mph 5.6 mph 75 % 0.0 in 0.0 W/m2 CLR
06:57 2.2 °F -2.1 °F 1015.8 in West 1.9 mph   73 % 0.0 in 0.0 W/m2 CLR
07:02 2.2 °F -2.3 °F 1015.8 in Calm     72 % 0.0 in 0.0 W/m2 CLR
07:03 2.2 °F -2.5 °F 1015.8 in Calm     71 % 0.0 in 0.0 W/m2 CLR
07:07 1.7 °F -2.8 °F 1015.8 in Calm     72 % 0.0 in 0.0 W/m2 CLR
07:09 2.2 °F -2.1 °F 1015.8 in Calm     73 % 0.0 in 0.0 W/m2 CLR
07:12 2.2 °F -1.9 °F 1015.8 in Calm     74 % 0.0 in 0.0 W/m2 CLR
07:17 2.2 °F -1.6 °F 1015.5 in Calm     76 % 0.0 in 0.0 W/m2 CLR
07:18 2.2 °F -1.8 °F 1015.5 in Calm     75 % 0.0 in 0.0 W/m2 CLR
07:23 2.2 °F -1.8 °F 1015.5 in Calm     75 % 0.0 in 0.0 W/m2 CLR
07:25 2.2 °F -1.6 °F 1015.5 in Calm     76 % 0.0 in 0.0 W/m2 CLR
07:30 2.2 °F -1.4 °F 1015.5 in Calm     77 % 0.0 in 0.0 W/m2 CLR
07:31 2.2 °F -1.4 °F 1015.5 in Calm     77 % 0.0 in 0.0 W/m2 CLR
07:36 1.7 °F -1.6 °F 1015.5 in Calm     79 % 0.0 in 0.0 W/m2 CLR
07:38 1.7 °F -1.6 °F 1015.5 in West 1.6 mph 1.6 mph 79 % 0.0 in 0.0 W/m2 CLR
07:44 2.2 °F -0.9 °F 1015.5 in Calm     80 % 0.0 in 0.0 W/m2 CLR
07:47 2.2 °F -0.9 °F 1015.5 in Calm     80 % 0.0 in 0.0 W/m2 CLR
07:52 2.2 °F -0.9 °F 1015.8 in West 8.0 mph 8.0 mph 80 % 0.0 in 0.0 W/m2 CLR
07:59 1.7 °F -1.2 °F 1015.8 in West 7.4 mph   81 % 0.0 in 0.0 W/m2 CLR
08:04 1.7 °F -1.2 °F 1015.8 in Calm     81 % 0.0 in 0.0 W/m2 CLR
08:07 1.7 °F -1.2 °F 1015.8 in Calm     81 % 0.0 in 0.0 W/m2 CLR
08:10 1.7 °F -1.2 °F 1015.8 in Calm     81 % 0.0 in 0.0 W/m2 CLR
08:12 1.7 °F -1.6 °F 1015.8 in Calm     79 % 0.0 in 0.0 W/m2 CLR
08:18 1.7 °F -1.4 °F 1015.8 in Calm     80 % 0.0 in 0.0 W/m2 OVC
08:23 1.7 °F -1.2 °F 1015.8 in Calm     81 % 0.0 in 5.0 W/m2 OVC
08:26 1.7 °F -1.4 °F 1015.8 in Calm     80 % 0.0 in 5.0 W/m2 OVC
08:29 2.2 °F -0.9 °F 1016.1 in Calm     80 % 0.0 in 7.0 W/m2 OVC
08:31 1.7 °F -1.2 °F 1015.8 in Calm     81 % 0.0 in 7.0 W/m2 BKN
08:36 2.2 °F -0.7 °F 1016.1 in Calm     81 % 0.0 in 9.0 W/m2 BKN
08:37 2.2 °F -0.7 °F 1016.1 in Calm     81 % 0.0 in 11.0 W/m2 BKN
08:42 2.2 °F -0.6 °F 1016.1 in Calm     82 % 0.0 in 12.0 W/m2 BKN
08:44 1.7 °F -1.1 °F 1016.1 in West 7.4 mph 7.4 mph 82 % 0.0 in 12.0 W/m2 BKN
08:49 1.7 °F -0.9 °F 1016.1 in Calm     83 % 0.0 in 14.0 W/m2 BKN
08:55 1.7 °F -1.1 °F 1016.1 in Calm     82 % 0.0 in 18.0 W/m2 BKN
09:00 1.7 °F -1.2 °F 1016.1 in Calm     81 % 0.0 in 25.0 W/m2 BKN
09:02 1.7 °F -1.2 °F 1016.1 in Calm     81 % 0.0 in 32.0 W/m2 BKN
09:07 1.7 °F -1.2 °F 1016.1 in NW 9.3 mph 9.3 mph 81 % 0.0 in 37.0 W/m2 BKN
09:11 1.7 °F -3.1 °F 1016.1 in NW 17.7 mph 17.7 mph 71 % 0.0 in 49.0 W/m2 SCT
09:16 1.7 °F -4.0 °F 1016.1 in NW 22.5 mph 22.5 mph 66 % 0.0 in 58.0 W/m2 SCT
09:17 1.7 °F -4.2 °F 1016.1 in NNW 24.1 mph 24.1 mph 65 % 0.0 in 60.0 W/m2 SCT
09:22 2.2 °F -3.9 °F 1016.1 in NNW 22.2 mph 22.2 mph 64 % 0.0 in 63.0 W/m2 SCT
09:26 2.8 °F -3.4 °F 1016.1 in North 18.5 mph 18.5 mph 64 % 0.0 in 84.0 W/m2 SCT
09:30 6.7 °F 0.3 °F 1016.1 in NW 19.3 mph 19.3 mph 64 % 0.0 in 97.0 W/m2 FEW
09:31 6.7 °F 0.3 °F 1016.1 in NNW 22.2 mph 22.2 mph 64 % 0.0 in 97.0 W/m2 FEW
09:36 8.9 °F 2.4 °F 1015.8 in North 18.5 mph 18.5 mph 64 % 0.0 in 90.0 W/m2 CLR
09:38 9.4 °F 2.7 °F 1015.8 in North 24.1 mph 24.1 mph 63 % 0.0 in 118.0 W/m2 CLR
09:44 11.1 °F 4.3 °F 1015.8 in North 27.8 mph 27.8 mph 63 % 0.0 in 132.0 W/m2 CLR
09:49 11.7 °F 4.4 °F 1015.8 in NNW 33.3 mph 33.3 mph 61 % 0.0 in 148.0 W/m2 CLR
09:54 11.7 °F 4.4 °F 1015.8 in NNW 31.5 mph 31.5 mph 61 % 0.0 in 162.0 W/m2 CLR
09:56 12.2 °F 4.7 °F 1015.8 in NNW 38.6 mph 38.6 mph 60 % 0.0 in 169.0 W/m2 CLR
09:59 12.2 °F 4.7 °F 1015.8 in NNW 37.0 mph 37.0 mph 60 % 0.0 in 179.0 W/m2 CLR
10:02 12.8 °F 4.9 °F 1015.8 in NNW 37.0 mph 37.0 mph 59 % 0.0 in 188.0 W/m2 CLR
10:05 12.8 °F 4.9 °F 1015.8 in North 35.2 mph 35.2 mph 59 % 0.0 in 151.0 W/m2 CLR
10:09 12.8 °F 4.9 °F 1015.5 in North 35.2 mph 35.2 mph 59 % 0.0 in 134.0 W/m2 CLR
10:10 12.8 °F 4.9 °F 1015.8 in North 37.0 mph 37.0 mph 59 % 0.0 in 167.0 W/m2 CLR
10:15 12.8 °F 4.7 °F 1015.5 in North 29.6 mph 29.6 mph 58 % 0.0 in 185.0 W/m2 CLR
10:20 13.3 °F 5.2 °F 1015.5 in North 25.9 mph 25.9 mph 58 % 0.0 in 185.0 W/m2 CLR
10:21 13.3 °F 5.2 °F 1015.5 in NNW 25.9 mph 25.9 mph 58 % 0.0 in 185.0 W/m2 CLR
10:23 13.3 °F 5.2 °F 1015.5 in NNW 25.9 mph 25.9 mph 58 % 0.0 in 243.0 W/m2 CLR
10:27 13.3 °F 5.0 °F 1015.5 in NNW 27.8 mph 27.8 mph 57 % 0.0 in 251.0 W/m2 CLR
10:32 13.3 °F 5.0 °F 1015.5 in North 25.9 mph 25.9 mph 57 % 0.0 in 265.0 W/m2 CLR
10:37 13.3 °F 5.0 °F 1015.5 in NW 18.5 mph 18.5 mph 57 % 0.0 in 276.0 W/m2 CLR
10:42 13.3 °F 4.7 °F 1015.5 in NW 19.3 mph 19.3 mph 56 % 0.0 in 285.0 W/m2 CLR
10:47 13.3 °F 4.5 °F 1015.5 in North 16.1 mph 16.1 mph 55 % 0.0 in 295.0 W/m2 CLR
10:50 13.9 °F 5.0 °F 1015.5 in North 16.7 mph 16.7 mph 55 % 0.0 in 301.0 W/m2 CLR
10:52 13.9 °F 5.0 °F 1015.5 in NW 24.1 mph 24.1 mph 55 % 0.0 in 306.0 W/m2 CLR
10:57 13.9 °F 4.7 °F 1015.5 in NW 18.5 mph 18.5 mph 54 % 0.0 in 313.0 W/m2 CLR
11:02 13.9 °F 4.7 °F 1015.5 in NW 22.2 mph 22.2 mph 54 % 0.0 in 325.0 W/m2 CLR
11:03 14.4 °F 5.2 °F 1015.1 in NW 31.5 mph 31.5 mph 54 % 0.0 in 327.0 W/m2 CLR
11:08 14.4 °F 5.0 °F 1015.1 in NW 22.2 mph 22.2 mph 53 % 0.0 in 336.0 W/m2 CLR
11:10 14.4 °F 5.0 °F 1015.1 in North 27.8 mph 27.8 mph 53 % 0.0 in 339.0 W/m2 CLR
11:14 14.4 °F 5.0 °F 1015.1 in North 31.5 mph 31.5 mph 53 % 0.0 in 345.0 W/m2 CLR
11:15 14.4 °F 5.0 °F 1015.1 in NNW 29.6 mph 29.6 mph 53 % 0.0 in 348.0 W/m2 CLR
11:20 15.0 °F 5.2 °F 1015.1 in NW 31.5 mph 31.5 mph 52 % 0.0 in 355.0 W/m2 CLR
11:25 15.0 °F 5.2 °F 1015.1 in NNW 25.9 mph 25.9 mph 52 % 0.0 in 364.0 W/m2 CLR
11:26 15.0 °F 5.2 °F 1015.1 in NNW 25.9 mph 25.9 mph 52 % 0.0 in 364.0 W/m2 CLR
11:31 15.0 °F 5.2 °F 1015.1 in North 24.1 mph 24.1 mph 52 % 0.0 in 371.0 W/m2 CLR
11:36 15.0 °F 5.2 °F 1014.8 in NW 16.7 mph 16.7 mph 52 % 0.0 in 378.0 W/m2 CLR
11:37 15.0 °F 5.2 °F 1014.8 in NW 16.7 mph 16.7 mph 52 % 0.0 in 378.0 W/m2 CLR
11:38 15.0 °F 4.9 °F 1014.8 in WNW 14.8 mph 14.8 mph 51 % 0.0 in 380.0 W/m2 CLR
11:42 15.0 °F 4.9 °F 1014.8 in North 18.5 mph 18.5 mph 51 % 0.0 in 385.0 W/m2 CLR
11:44 15.0 °F 4.9 °F 1014.8 in NNW 22.2 mph 22.2 mph 51 % 0.0 in 387.0 W/m2 CLR
11:48 15.0 °F 4.9 °F 1014.4 in NNW 31.5 mph 31.5 mph 51 % 0.0 in 396.0 W/m2 CLR
11:53 15.6 °F 5.4 °F 1014.4 in NW 24.1 mph 24.1 mph 51 % 0.0 in 401.0 W/m2 CLR
11:54 15.6 °F 5.2 °F 1014.4 in NW 22.2 mph 22.2 mph 50 % 0.0 in 403.0 W/m2 CLR
11:59 15.6 °F 5.2 °F 1014.4 in NNW 27.8 mph 27.8 mph 50 % 0.0 in 406.0 W/m2 CLR
12:02 15.6 °F 5.2 °F 1014.4 in WNW 18.5 mph 18.5 mph 50 % 0.0 in 410.0 W/m2 CLR
12:07 15.6 °F 5.2 °F 1014.1 in North 18.5 mph 18.5 mph 50 % 0.0 in 417.0 W/m2 CLR
12:08 15.6 °F 5.2 °F 1014.1 in NW 22.2 mph 22.2 mph 50 % 0.0 in 417.0 W/m2 CLR
12:13 15.6 °F 5.2 °F 1014.1 in NW 18.5 mph 18.5 mph 50 % 0.0 in 422.0 W/m2 CLR
12:14 15.6 °F 5.2 °F 1014.1 in WNW 20.9 mph 20.9 mph 50 % 0.0 in 422.0 W/m2 CLR
12:19 15.6 °F 4.9 °F 1014.1 in WNW 13.0 mph 13.0 mph 49 % 0.0 in 427.0 W/m2 CLR
12:21 15.6 °F 4.9 °F 1013.8 in NW 17.7 mph 17.7 mph 49 % 0.0 in 427.0 W/m2 CLR
12:24 15.6 °F 4.9 °F 1013.8 in NW 18.5 mph 18.5 mph 49 % 0.0 in 434.0 W/m2 CLR
12:29 15.6 °F 4.9 °F 1013.8 in NNW 16.7 mph 16.7 mph 49 % 0.0 in 446.0 W/m2 CLR
12:30 15.6 °F 4.9 °F 1013.8 in NNW 14.8 mph 14.8 mph 49 % 0.0 in 448.0 W/m2 CLR
12:35 15.6 °F 4.6 °F 1013.4 in WNW 20.4 mph 20.4 mph 48 % 0.0 in 446.0 W/m2 CLR
12:36 15.6 °F 4.6 °F 1013.4 in NW 22.2 mph 22.2 mph 48 % 0.0 in 446.0 W/m2 CLR
12:42 15.6 °F 4.6 °F 1013.4 in West 24.1 mph 24.1 mph 48 % 0.0 in 468.0 W/m2 CLR
12:48 15.6 °F 4.6 °F 1013.4 in WNW 25.9 mph 25.9 mph 48 % 0.0 in 519.0 W/m2 CLR
12:50 15.6 °F 4.6 °F 1013.4 in WNW 24.1 mph 24.1 mph 48 % 0.0 in 527.0 W/m2 CLR
12:53 16.1 °F 5.1 °F 1013.1 in NW 18.5 mph 18.5 mph 48 % 0.0 in 552.0 W/m2 CLR
12:58 16.1 °F 4.8 °F 1013.1 in WNW 16.1 mph 16.1 mph 47 % 0.0 in 192.0 W/m2 CLR
13:03 16.1 °F 5.1 °F 1013.1 in NW 18.5 mph 18.5 mph 48 % 0.0 in 192.0 W/m2 CLR
13:07 16.1 °F 5.1 °F 1012.8 in NW 18.5 mph 18.5 mph 48 % 0.0 in 506.0 W/m2 CLR
13:12 16.1 °F 4.8 °F 1012.8 in NW 22.2 mph 22.2 mph 47 % 0.0 in 125.0 W/m2 CLR
13:13 16.1 °F 5.1 °F 1012.4 in NW 22.2 mph 22.2 mph 48 % 0.0 in 125.0 W/m2 CLR
13:15 16.1 °F 5.1 °F 1012.4 in WNW 18.5 mph 18.5 mph 48 % 0.0 in 105.0 W/m2 CLR
13:20 15.6 °F 4.9 °F 1012.4 in WNW 18.5 mph 18.5 mph 49 % 0.0 in 520.0 W/m2 CLR
13:21 15.6 °F 4.9 °F 1012.4 in NW 14.8 mph 14.8 mph 49 % 0.0 in 504.0 W/m2 CLR
13:26 16.1 °F 5.1 °F 1012.4 in WNW 16.7 mph 16.7 mph 48 % 0.0 in 478.0 W/m2 CLR
13:31 16.1 °F 4.8 °F 1012.1 in NW 27.8 mph 27.8 mph 47 % 0.0 in 529.0 W/m2 CLR
13:35 16.1 °F 4.5 °F 1012.1 in NNW 19.3 mph 19.3 mph 46 % 0.0 in 524.0 W/m2 CLR
13:36 16.1 °F 4.5 °F 1012.1 in WNW 18.5 mph 18.5 mph 46 % 0.0 in 545.0 W/m2 CLR
13:40 16.7 °F 5.0 °F 1012.1 in WNW 11.1 mph 11.1 mph 46 % 0.0 in 190.0 W/m2 CLR
13:45 16.7 °F 5.3 °F 1011.7 in WNW 16.7 mph 16.7 mph 47 % 0.0 in 503.0 W/m2 CLR
13:47 16.7 °F 5.3 °F 1011.7 in WNW 3.7 mph 3.7 mph 47 % 0.0 in 476.0 W/m2 CLR
13:52 16.7 °F 5.0 °F 1011.7 in NW 22.2 mph 22.2 mph 46 % 0.0 in 455.0 W/m2 CLR
13:54 16.7 °F 5.0 °F 1011.7 in NW 16.1 mph 16.1 mph 46 % 0.0 in 448.0 W/m2 CLR
13:59 16.7 °F 5.0 °F 1011.4 in WNW 16.7 mph 16.7 mph 46 % 0.0 in 452.0 W/m2 CLR
14:03 16.7 °F 5.0 °F 1011.4 in WNW 22.2 mph 22.2 mph 46 % 0.0 in 267.0 W/m2 CLR
14:08 16.1 °F 4.8 °F 1011.4 in NNW 3.7 mph 3.7 mph 47 % 0.0 in 144.0 W/m2 CLR
14:10 16.1 °F 5.1 °F 1011.4 in NW 12.9 mph 12.9 mph 48 % 0.0 in 461.0 W/m2 CLR
14:15 16.7 °F 5.3 °F 1011.1 in West 16.7 mph 16.7 mph 47 % 0.0 in 100.0 W/m2 CLR
14:17 16.1 °F 4.8 °F 1011.1 in WNW 18.5 mph 18.5 mph 47 % 0.0 in 127.0 W/m2 CLR
14:22 16.1 °F 4.8 °F 1011.1 in NW 16.7 mph 16.7 mph 47 % 0.0 in 135.0 W/m2 CLR
14:23 16.1 °F 4.8 °F 1011.1 in WNW 16.7 mph 16.7 mph 47 % 0.0 in 135.0 W/m2 CLR
14:28 16.1 °F 4.8 °F 1011.1 in WNW 25.9 mph 25.9 mph 47 % 0.0 in 144.0 W/m2 CLR
14:33 16.1 °F 4.8 °F 1011.1 in WNW 3.7 mph 3.7 mph 47 % 0.0 in 98.0 W/m2 CLR
14:36 15.6 °F 4.3 °F 1011.1 in WNW 11.1 mph 11.1 mph 47 % 0.0 in 88.0 W/m2 CLR
14:41 15.6 °F 4.6 °F 1010.7 in NW 14.5 mph 14.5 mph 48 % 0.0 in 74.0 W/m2 CLR
14:42 15.6 °F 4.6 °F 1010.7 in WNW 16.7 mph 16.7 mph 48 % 0.0 in 79.0 W/m2 CLR
14:43 15.6 °F 4.6 °F 1010.7 in NW 16.7 mph 16.7 mph 48 % 0.0 in 121.0 W/m2 FEW
14:48 15.6 °F 4.6 °F 1010.7 in NW 16.7 mph 16.7 mph 48 % 0.0 in 390.0 W/m2 CLR
14:53 16.1 °F 4.8 °F 1010.4 in NW 3.7 mph 3.7 mph 47 % 0.0 in 353.0 W/m2 CLR
14:56 16.1 °F 4.8 °F 1010.4 in NW 1.9 mph 1.9 mph 47 % 0.0 in 353.0 W/m2 CLR
15:01 16.7 °F 5.0 °F 1010.4 in WNW 3.7 mph 3.7 mph 46 % 0.0 in 345.0 W/m2 CLR
15:06 17.2 °F 5.2 °F 1010.0 in NW 18.5 mph 18.5 mph 45 % 0.0 in 336.0 W/m2 CLR
15:08 17.2 °F 5.2 °F 1010.4 in NW 14.8 mph 14.8 mph 45 % 0.0 in 339.0 W/m2 CLR
15:09 17.2 °F 5.2 °F 1010.4 in NW 16.7 mph 16.7 mph 45 % 0.0 in 334.0 W/m2 CLR
15:14 17.2 °F 5.2 °F 1010.0 in West 19.3 mph 19.3 mph 45 % 0.0 in 330.0 W/m2 CLR
15:15 17.2 °F 5.2 °F 1010.0 in West 18.5 mph 18.5 mph 45 % 0.0 in 334.0 W/m2 CLR
15:17 17.2 °F 5.2 °F 1010.0 in West 18.5 mph 18.5 mph 45 % 0.0 in 338.0 W/m2 CLR
15:22 17.2 °F 4.8 °F 1010.0 in WNW 1.9 mph 1.9 mph 44 % 0.0 in 316.0 W/m2 CLR
15:23 17.2 °F 5.2 °F 1010.0 in WNW 1.9 mph 1.9 mph 45 % 0.0 in 316.0 W/m2 CLR
15:28 17.2 °F 4.8 °F 1010.0 in North 1.9 mph 1.9 mph 44 % 0.0 in 311.0 W/m2 CLR
15:33 17.2 °F 5.2 °F 1010.0 in NE 14.8 mph 14.8 mph 45 % 0.0 in 292.0 W/m2 CLR
15:38 17.2 °F 5.2 °F 1010.0 in Calm     45 % 0.0 in 279.0 W/m2 CLR
15:39 17.2 °F 5.2 °F 1010.0 in Calm     45 % 0.0 in 279.0 W/m2 CLR
15:40 17.2 °F 5.2 °F 1010.0 in Calm     45 % 0.0 in 278.0 W/m2 CLR
15:45 17.2 °F 4.8 °F 1010.0 in NE 25.9 mph 25.9 mph 44 % 0.0 in 267.0 W/m2 CLR
15:50 17.2 °F 4.8 °F 1009.7 in North 18.5 mph 18.5 mph 44 % 0.0 in 250.0 W/m2 CLR
15:51 17.2 °F 4.8 °F 1009.7 in North 18.5 mph 18.5 mph 44 % 0.0 in 250.0 W/m2 CLR
15:56 17.2 °F 5.2 °F 1009.7 in NW 1.9 mph 1.9 mph 45 % 0.0 in 232.0 W/m2 CLR
16:01 17.2 °F 4.8 °F 1009.7 in Calm     44 % 0.0 in 225.0 W/m2 CLR
16:06 17.2 °F 4.8 °F 1009.7 in Calm     44 % 0.0 in 199.0 W/m2 CLR
16:11 16.7 °F 4.3 °F 1009.4 in Calm     44 % 0.0 in 183.0 W/m2 CLR
16:16 16.1 °F 3.5 °F 1009.4 in NE 5.6 mph 5.6 mph 43 % 0.0 in 169.0 W/m2 CLR
16:21 16.1 °F 3.5 °F 1009.4 in North 1.9 mph 1.9 mph 43 % 0.0 in 155.0 W/m2 CLR
16:26 15.6 °F 3.0 °F 1009.4 in Calm     43 % 0.0 in 141.0 W/m2 CLR
16:36 15.0 °F 3.2 °F 1009.4 in ENE 1.9 mph 1.9 mph 45 % 0.0 in 111.0 W/m2 CLR
16:38 15.0 °F 3.4 °F 1009.4 in Calm     46 % 0.0 in 105.0 W/m2 CLR
16:43 15.0 °F 3.4 °F 1009.0 in Calm     46 % 0.0 in 91.0 W/m2 CLR
16:48 14.4 °F 2.9 °F 1009.0 in Calm     46 % 0.0 in 81.0 W/m2 FEW
16:50 14.4 °F 2.9 °F 1009.0 in Calm     46 % 0.0 in 76.0 W/m2 FEW
16:55 13.9 °F 2.4 °F 1009.4 in Calm     46 % 0.0 in 60.0 W/m2 SCT
16:56 13.9 °F 2.4 °F 1009.0 in Calm     46 % 0.0 in 60.0 W/m2 SCT
17:01 13.3 °F 1.9 °F 1009.0 in Calm     46 % 0.0 in 49.0 W/m2 SCT
17:06 12.8 °F 1.4 °F 1009.0 in Calm     46 % 0.0 in 35.0 W/m2 BKN
17:11 12.2 °F 0.9 °F 1009.0 in Calm     46 % 0.0 in 18.0 W/m2 BKN
17:12 12.2 °F 0.9 °F 1009.0 in Calm     46 % 0.0 in 18.0 W/m2 BKN
17:17 11.7 °F 0.7 °F 1009.0 in Calm     47 % 0.0 in 19.0 W/m2 BKN
17:22 11.7 °F 0.7 °F 1009.0 in Calm     47 % 0.0 in 16.0 W/m2 BKN
17:27 11.1 °F 0.2 °F 1009.0 in Calm     47 % 0.0 in 12.0 W/m2 BKN
17:29 11.1 °F 0.5 °F 1009.0 in Calm     48 % 0.0 in 12.0 W/m2 BKN
17:34 10.6 °F 0.0 °F 1009.0 in Calm     48 % 0.0 in 11.0 W/m2 BKN
17:36 10.6 °F 0.0 °F 1009.0 in Calm     48 % 0.0 in 9.0 W/m2 BKN
17:41 10.6 °F 0.3 °F 1009.0 in Calm     49 % 0.0 in 7.0 W/m2 BKN
17:46 10.0 °F -0.2 °F 1009.0 in Calm     49 % 0.0 in 5.0 W/m2 OVC
17:51 10.0 °F 0.1 °F 1009.0 in Calm     50 % 0.0 in 0.0 W/m2 OVC
17:52 10.0 °F 0.1 °F 1009.0 in Calm     50 % 0.0 in 0.0 W/m2 OVC
18:01 10.0 °F 0.3 °F 1009.0 in Calm     51 % 0.0 in 0.0 W/m2 CLR
18:06 10.0 °F 0.6 °F 1009.0 in Calm     52 % 0.0 in 0.0 W/m2 CLR
18:11 10.0 °F 0.8 °F 1009.0 in Calm     53 % 0.0 in 0.0 W/m2 CLR
18:12 10.0 °F 1.1 °F 1009.0 in Calm     54 % 0.0 in 0.0 W/m2 CLR
18:16 10.0 °F 1.4 °F 1009.0 in Calm     55 % 0.0 in 0.0 W/m2 CLR
18:21 9.4 °F 1.3 °F 1009.0 in Calm     57 % 0.0 in 0.0 W/m2 CLR
18:22 9.4 °F 1.3 °F 1009.0 in Calm     57 % 0.0 in 0.0 W/m2 CLR
18:27 9.4 °F 1.3 °F 1009.0 in Calm     57 % 0.0 in 0.0 W/m2 CLR
18:32 8.9 °F 1.1 °F 1009.0 in Calm     58 % 0.0 in 0.0 W/m2 CLR
18:36 8.3 °F 0.8 °F 1009.0 in Calm     59 % 0.0 in 0.0 W/m2 CLR
18:38 8.3 °F 1.0 °F 1009.0 in Calm     60 % 0.0 in 0.0 W/m2 CLR
18:43 8.3 °F 1.0 °F 1009.0 in Calm     60 % 0.0 in 0.0 W/m2 CLR
18:46 8.3 °F 1.0 °F 1009.0 in Calm     60 % 0.0 in 0.0 W/m2 CLR
18:51 7.8 °F 0.5 °F 1009.0 in Calm     60 % 0.0 in 0.0 W/m2 CLR
18:53 7.8 °F 0.7 °F 1009.0 in Calm     61 % 0.0 in 0.0 W/m2 CLR
18:58 7.2 °F 0.7 °F 1009.0 in Calm     63 % 0.0 in 0.0 W/m2 CLR
19:00 7.2 °F 0.7 °F 1009.0 in Calm     63 % 0.0 in 0.0 W/m2 CLR
19:05 6.7 °F 0.3 °F 1009.0 in Calm     64 % 0.0 in 0.0 W/m2 CLR
19:07 6.7 °F 0.3 °F 1009.0 in Calm     64 % 0.0 in 0.0 W/m2 CLR
19:12 6.1 °F -0.2 °F 1009.0 in Calm     64 % 0.0 in 0.0 W/m2 CLR
19:13 6.1 °F -0.2 °F 1009.0 in Calm     64 % 0.0 in 0.0 W/m2 CLR
19:16 6.1 °F 0.0 °F 1009.0 in Calm     65 % 0.0 in 0.0 W/m2 CLR
19:21 6.7 °F 0.6 °F 1009.0 in Calm     65 % 0.0 in 0.0 W/m2 CLR
19:23 6.7 °F 0.6 °F 1009.0 in Calm     65 % 0.0 in 0.0 W/m2 CLR
19:28 6.7 °F 0.6 °F 1009.0 in Calm     65 % 0.0 in 0.0 W/m2 CLR
19:32 6.1 °F 0.2 °F 1009.4 in Calm     66 % 0.0 in 0.0 W/m2 CLR
19:37 6.1 °F 0.2 °F 1009.0 in Calm     66 % 0.0 in 0.0 W/m2 CLR
19:40 6.1 °F 0.4 °F 1009.0 in Calm     67 % 0.0 in 0.0 W/m2 CLR
19:45 6.7 °F 0.9 °F 1009.0 in Calm     67 % 0.0 in 0.0 W/m2 CLR
19:50 6.7 °F 0.8 °F 1009.0 in Calm     66 % 0.0 in 0.0 W/m2 CLR
19:55 6.1 °F 0.4 °F 1009.4 in Calm     67 % 0.0 in 0.0 W/m2 CLR
19:58 6.1 °F 0.4 °F 1009.0 in Calm     67 % 0.0 in 0.0 W/m2 CLR
20:03 5.6 °F -0.1 °F 1009.4 in Calm     67 % 0.0 in 0.0 W/m2 CLR
20:08 5.0 °F -0.6 °F 1009.0 in Calm     67 % 0.0 in 0.0 W/m2 CLR
20:13 5.0 °F -0.4 °F 1009.0 in Calm     68 % 0.0 in 0.0 W/m2 CLR
20:16 5.0 °F -0.2 °F 1009.0 in Calm     69 % 0.0 in 0.0 W/m2 CLR
20:22 4.4 °F -0.8 °F 1009.4 in Calm     69 % 0.0 in 0.0 W/m2 CLR
20:27 4.4 °F -0.9 °F 1009.4 in Calm     68 % 0.0 in 0.0 W/m2 CLR
20:28 4.4 °F -0.8 °F 1009.0 in Calm     69 % 0.0 in 0.0 W/m2 CLR
20:33 4.4 °F -0.9 °F 1009.0 in Calm     68 % 0.0 in 0.0 W/m2 CLR
20:35 4.4 °F -0.8 °F 1009.0 in Calm     69 % 0.0 in 0.0 W/m2 CLR
20:40 5.0 °F -0.2 °F 1009.0 in Calm     69 % 0.0 in 0.0 W/m2 CLR
20:42 5.0 °F -0.2 °F 1009.0 in Calm     69 % 0.0 in 0.0 W/m2 CLR
20:47 5.0 °F 0.0 °F 1009.0 in Calm     70 % 0.0 in 0.0 W/m2 CLR
20:50 5.0 °F 0.2 °F 1009.0 in Calm     71 % 0.0 in 0.0 W/m2 CLR
20:55 5.0 °F 0.0 °F 1008.7 in Calm     70 % 0.0 in 0.0 W/m2 CLR
20:59 5.0 °F 0.0 °F 1008.7 in Calm     70 % 0.0 in 0.0 W/m2 CLR
21:02 4.4 °F -0.3 °F 1009.0 in Calm     71 % 0.0 in 0.0 W/m2 CLR
21:07 4.4 °F -0.3 °F 1008.7 in Calm     71 % 0.0 in 0.0 W/m2 CLR
21:09 3.9 °F -0.9 °F 1008.7 in Calm     71 % 0.0 in 0.0 W/m2 CLR
21:10 3.9 °F -0.9 °F 1008.7 in Calm     71 % 0.0 in 0.0 W/m2 CLR
21:15 3.9 °F -0.9 °F 1008.7 in Calm     71 % 0.0 in 0.0 W/m2 CLR
21:16 3.9 °F -0.9 °F 1008.7 in Calm     71 % 0.0 in 0.0 W/m2 CLR
21:19 3.9 °F -0.7 °F 1008.7 in Calm     72 % 0.0 in 0.0 W/m2 CLR
21:24 3.3 °F -1.2 °F 1008.7 in Calm     72 % 0.0 in 0.0 W/m2 CLR
21:25 3.3 °F -1.2 °F 1008.7 in Calm     72 % 0.0 in 0.0 W/m2 CLR
21:30 3.3 °F -1.2 °F 1008.7 in Calm     72 % 0.0 in 0.0 W/m2 CLR
21:32 2.8 °F -1.8 °F 1008.7 in Calm     72 % 0.0 in 0.0 W/m2 CLR
21:35 2.8 °F -1.8 °F 1008.7 in Calm     72 % 0.0 in 0.0 W/m2 CLR
21:40 2.8 °F -1.8 °F 1008.7 in Calm     72 % 0.0 in 0.0 W/m2 CLR
21:42 2.8 °F -1.8 °F 1008.7 in Calm     72 % 0.0 in 0.0 W/m2 CLR
21:47 2.8 °F -1.6 °F 1008.7 in Calm     73 % 0.0 in 0.0 W/m2 CLR
21:48 3.3 °F -1.1 °F 1008.7 in Calm     73 % 0.0 in 0.0 W/m2 CLR
21:53 3.3 °F -1.1 °F 1008.7 in Calm     73 % 0.0 in 0.0 W/m2 CLR
21:55 3.3 °F -1.1 °F 1008.7 in Calm     73 % 0.0 in 0.0 W/m2 CLR
22:00 3.3 °F -0.7 °F 1008.7 in Calm     75 % 0.0 in 0.0 W/m2 CLR
22:05 3.3 °F -0.5 °F 1008.7 in Calm     76 % 0.0 in 0.0 W/m2 CLR
22:07 3.3 °F -0.7 °F 1008.7 in Calm     75 % 0.0 in 0.0 W/m2 CLR
22:11 2.8 °F -1.1 °F 1008.7 in Calm     76 % 0.0 in 0.0 W/m2 CLR
22:16 2.8 °F -0.8 °F 1008.7 in Calm     77 % 0.0 in 0.0 W/m2 CLR
22:21 2.8 °F -0.8 °F 1008.7 in Calm     77 % 0.0 in 0.0 W/m2 CLR
22:22 2.8 °F -0.8 °F 1008.7 in Calm     77 % 0.0 in 0.0 W/m2 CLR
22:27 2.8 °F -1.1 °F 1008.7 in Calm     76 % 0.0 in 0.0 W/m2 CLR
22:30 2.8 °F -0.8 °F 1008.7 in Calm     77 % 0.0 in 0.0 W/m2 CLR
22:32 2.8 °F -0.8 °F 1008.7 in Calm     77 % 0.0 in 0.0 W/m2 CLR
22:37 2.8 °F -1.1 °F 1008.7 in Calm     76 % 0.0 in 0.0 W/m2 CLR
22:40 2.8 °F -1.2 °F 1008.4 in Calm     75 % 0.0 in 0.0 W/m2 CLR
22:45 2.2 °F -1.6 °F 1008.7 in Calm     76 % 0.0 in 0.0 W/m2 CLR
22:48 2.2 °F -1.4 °F 1008.4 in Calm     77 % 0.0 in 0.0 W/m2 CLR
22:51 2.2 °F -1.4 °F 1008.7 in Calm     77 % 0.0 in 0.0 W/m2 CLR
22:54 2.2 °F -1.6 °F 1008.7 in Calm     76 % 0.0 in 0.0 W/m2 CLR
22:59 2.2 °F -1.6 °F 1008.4 in Calm     76 % 0.0 in 0.0 W/m2 CLR
23:00 2.2 °F -1.6 °F 1008.4 in Calm     76 % 0.0 in 0.0 W/m2 CLR
23:05 2.2 °F -1.4 °F 1008.4 in Calm     77 % 0.0 in 0.0 W/m2 CLR
23:06 2.2 °F -1.4 °F 1008.4 in Calm     77 % 0.0 in 0.0 W/m2 CLR
23:11 2.2 °F -1.2 °F 1008.4 in Calm     78 % 0.0 in 0.0 W/m2 CLR
23:17 2.8 °F -0.7 °F 1008.4 in Calm     78 % 0.0 in 0.0 W/m2 CLR
23:19 2.8 °F -0.7 °F 1008.4 in Calm     78 % 0.0 in 0.0 W/m2 CLR
23:24 2.8 °F -0.5 °F 1008.4 in Calm     79 % 0.0 in 0.0 W/m2 CLR
23:27 2.8 °F -0.5 °F 1008.0 in Calm     79 % 0.0 in 0.0 W/m2 CLR
23:29 2.8 °F -0.5 °F 1008.0 in Calm     79 % 0.0 in 0.0 W/m2 CLR
23:32 2.8 °F -0.5 °F 1008.0 in Calm     79 % 0.0 in 0.0 W/m2 CLR
23:36 2.8 °F -0.5 °F 1008.4 in Calm     79 % 0.0 in 0.0 W/m2 CLR
23:41 2.8 °F -0.5 °F 1008.4 in Calm     79 % 0.0 in 0.0 W/m2 CLR
23:46 2.2 °F -1.1 °F 1008.4 in Calm     79 % 0.0 in 0.0 W/m2 CLR
23:48 2.2 °F -0.9 °F 1008.4 in Calm     80 % 0.0 in 0.0 W/m2 CLR
23:53 2.2 °F -0.9 °F 1008.0 in Calm     80 % 0.0 in 0.0 W/m2 CLR
23:59 2.2 °F -0.9 °F 1008.0 in Calm     80 % 0.0 in 0.0 W/m2 CLR
Lo Temps de Massalio
Compliments of Weather Underground - 1.5 mb